Latest Weather Observations for Cape Byron

IDN60801

Issued at 5:52 pm EDT Monday 18 February 2019 (issued every 10 minutes, with the page automatically refreshed every 10 minutes)

About weather observations | Map of weather stations | Latest weather observations for NSW | Other Formats
Station Details ID: 058216 Name: CAPE BYRON AWS Lat: -28.64 Lon: 153.64 Height: 95.0 m
Data from the previous 72 hours. | See also: Recent months at Cape Byron
Date/Time
EDT
Temp
°C
App
Temp
°C
Dew
Point
°C
Rel
Hum
%
Delta-T
°C
Wind Press
QNH
hPa
Press
MSL
hPa
Rain since
9am
mm
Dir  Spd
km/h
Gust
km/h
Spd
kts
Gust
kts
18/05:30pm 28.5 27.8 19.4 57 5.9 E 22 30 12 16 1010.3 1009.8 0.0
18/05:00pm 29.3 28.6 19.6 56 6.4 E 22 30 12 16 1010.3 1009.8 0.0
18/04:30pm 30.1 28.7 17.9 48 7.8 E 22 26 12 14 1010.5 1010.0 0.0
18/04:00pm 30.0 28.9 17.8 48 7.8 E 20 26 11 14 1010.8 1010.3 0.0
18/03:30pm 30.4 29.8 18.8 50 7.5 E 20 24 11 13 1010.9 1010.4 0.0
18/03:00pm 28.9 27.7 17.1 49 7.5 E 19 24 10 13 1011.3 1010.8 0.0
18/02:30pm 30.0 29.5 17.8 48 7.8 E 17 20 9 11 1011.6 1011.1 0.0
18/02:00pm 29.4 29.0 17.2 47 7.7 ESE 15 19 8 10 1012.0 1011.5 0.0
18/01:30pm 28.6 29.2 18.7 55 6.4 SE 13 17 7 9 1012.2 1011.7 0.0
18/01:00pm 28.1 28.8 18.8 57 6.0 SE 13 17 7 9 1012.6 1012.1 0.0
18/12:30pm 27.1 27.6 19.2 62 5.1 SE 15 17 8 9 1012.7 1012.2 0.0
18/12:00pm 26.2 26.9 19.6 67 4.3 S 15 19 8 10 1013.0 1012.5 0.0
18/11:30am 25.6 25.6 19.7 70 3.8 S 19 22 10 12 1013.4 1012.9 0.0
18/11:00am 25.0 26.0 19.4 71 3.6 S 13 19 7 10 1013.5 1013.0 0.0
18/10:30am 24.8 24.8 19.0 70 3.7 S 17 20 9 11 1013.6 1013.1 0.0
18/10:00am 24.6 24.5 18.8 70 3.7 S 17 20 9 11 1013.5 1013.0 0.0
18/09:30am 24.7 25.1 18.9 70 3.7 S 15 19 8 10 1013.5 1013.0 0.0
18/09:00am 23.8 24.5 18.9 74 3.1 SW 13 17 7 9 1013.5 1013.0 0.0
18/08:30am 22.8 23.9 18.8 78 2.5 SSW 11 15 6 8 1013.3 1012.8 0.0
18/08:00am 21.2 21.0 17.6 80 2.2 SW 15 20 8 11 1013.1 1012.6 0.0
18/07:30am 20.6 19.5 17.2 81 2.1 WSW 19 22 10 12 1012.9 1012.4 0.0
18/07:00am 20.9 20.2 17.3 80 2.2 WSW 17 20 9 11 1012.6 1012.1 0.0
18/06:30am 20.6 19.2 17.0 80 2.2 WSW 20 24 11 13 1012.5 1012.0 0.0
18/06:00am 20.7 20.3 17.1 80 2.2 SW 15 20 8 11 1012.3 1011.8 0.0
18/05:30am 20.7 20.3 17.1 80 2.2 WSW 15 19 8 10 1012.2 1011.7 0.0
18/05:00am 20.9 20.5 17.1 79 2.3 SW 15 19 8 10 1012.3 1011.8 0.0
18/04:30am 21.2 21.5 17.0 77 2.6 SSW 11 15 6 8 1012.4 1011.9 0.0
18/04:00am 21.8 22.9 17.2 75 2.8 SSW 7 11 4 6 1012.5 1012.0 0.0
18/03:30am 23.0 23.4 17.2 70 3.6 E 11 17 6 9 1012.6 1012.1 0.0
18/03:00am 23.5 23.2 18.2 72 3.3 E 17 24 9 13 1012.8 1012.3 0.0
18/02:30am 22.9 22.7 17.6 72 3.3 E 15 17 8 9 1013.0 1012.5 0.0
18/02:00am 23.1 22.5 17.6 71 3.4 E 17 20 9 11 1013.2 1012.7 0.0
18/01:30am 23.2 22.9 17.4 70 3.6 ENE 15 24 8 13 1013.6 1013.1 0.0
18/01:00am 23.4 24.0 17.8 71 3.5 ENE 11 17 6 9 1013.9 1013.4 0.0
18/12:30am 23.4 23.6 17.6 70 3.6 ENE 13 20 7 11 1014.3 1013.8 0.0
18/12:00am 23.5 23.6 17.5 69 3.7 ENE 13 22 7 12 1014.3 1013.8 0.0
 
Date/Time
EDT
Temp
°C
App
Temp
°C
Dew
Point
°C
Rel
Hum
%
Delta-T
°C
Wind Press
QNH
hPa
Press
MSL
hPa
Rain since
9am
mm
Dir  Spd
km/h
Gust
km/h
Spd
kts
Gust
kts
17/11:30pm 23.5 23.3 17.7 70 3.6 ESE 15 24 8 13 1014.3 1013.8 0.0
17/11:00pm 23.6 23.1 17.8 70 3.6 ENE 17 24 9 13 1014.4 1013.9 0.0
17/10:30pm 23.4 22.3 17.2 68 3.8 ENE 19 26 10 14 1014.5 1014.0 0.0
17/10:00pm 23.7 22.6 17.4 68 3.9 ENE 19 28 10 15 1014.4 1013.9 0.0
17/09:30pm 23.8 23.0 17.1 66 4.2 ENE 17 26 9 14 1014.2 1013.7 0.0
17/09:00pm 23.9 22.9 16.7 64 4.4 ENE 17 30 9 16 1014.0 1013.5 0.0
17/08:30pm 23.8 21.4 16.3 63 4.6 E 24 32 13 17 1013.8 1013.3 0.0
17/08:00pm 24.3 22.8 17.8 67 4.1 E 22 35 12 19 1013.5 1013.0 0.0
17/07:30pm 24.5 22.6 16.7 61 4.8 E 22 32 12 17 1013.3 1012.8 0.0
17/07:00pm 25.7 23.2 17.1 59 5.4 E 26 32 14 17 1013.2 1012.7 0.0
17/06:30pm 27.0 25.0 18.3 59 5.6 E 26 33 14 18 1013.0 1012.5 0.0
17/06:00pm 26.1 24.5 17.5 59 5.4 ESE 22 28 12 15 1013.0 1012.5 0.0
17/05:30pm 26.5 24.3 17.0 56 5.9 ESE 24 30 13 16 1012.8 1012.3 0.0
17/05:00pm 27.4 25.9 17.8 55 6.1 ESE 22 28 12 15 1012.9 1012.4 0.0
17/04:30pm 27.5 26.6 17.7 55 6.2 ESE 19 26 10 14 1013.0 1012.5 0.0
17/04:00pm 27.9 26.4 16.8 50 6.9 E 20 28 11 15 1013.2 1012.7 0.0
17/03:30pm 27.8 26.4 17.0 51 6.8 ESE 20 24 11 13 1013.5 1013.0 0.0
17/03:00pm 28.2 27.4 17.1 51 7.0 ESE 17 26 9 14 1013.8 1013.3 0.0
17/02:30pm 28.7 26.8 15.2 43 8.3 ESE 19 24 10 13 1014.1 1013.6 0.0
17/02:00pm 29.3 28.4 17.8 50 7.3 E 19 22 10 12 1014.5 1014.0 0.0
17/01:30pm 29.3 28.0 17.2 48 7.7 E 20 26 11 14 1014.8 1014.3 0.0
17/01:00pm 28.2 26.4 16.1 47 7.5 ESE 20 26 11 14 1015.0 1014.5 0.0
17/12:30pm 27.6 26.0 15.9 49 7.2 SE 19 24 10 13 1015.4 1014.9 0.0
17/12:00pm 27.1 25.4 15.8 50 6.9 SE 19 24 10 13 1015.8 1015.3 0.0
17/11:30am 27.1 25.2 15.8 50 6.9 SE 20 26 11 14 1016.0 1015.6 0.0
17/11:00am 26.0 24.2 16.0 54 6.1 SE 20 28 11 15 1016.4 1015.9 0.0
17/10:30am 26.8 24.5 15.8 51 6.8 SE 22 30 12 16 1016.3 1015.8 0.0
17/10:00am 24.2 22.9 15.7 59 5.2 S 17 24 9 13 1016.1 1015.7 0.0
17/09:30am 23.1 22.5 16.6 67 4.0 SSW 15 20 8 11 1015.9 1015.4 0.0
17/09:00am 22.6 22.5 16.9 70 3.5 SW 13 19 7 10 1015.8 1015.3 1.4
17/08:30am 21.3 20.3 16.7 75 2.8 SW 17 20 9 11 1015.6 1015.1 1.4
17/08:00am 20.3 18.8 16.3 78 2.4 SW 19 22 10 12 1015.5 1015.0 1.4
17/07:30am 20.2 19.0 16.0 77 2.5 SW 17 20 9 11 1015.2 1014.7 1.4
17/07:00am 19.9 18.7 16.0 78 2.3 SW 17 22 9 12 1014.9 1014.4 1.4
17/06:30am 19.8 18.9 15.9 78 2.3 SW 15 19 8 10 1014.7 1014.2 1.4
17/06:00am 20.5 19.2 15.9 75 2.8 SW 17 22 9 12 1014.6 1014.1 1.4
17/05:30am 20.6 19.8 16.0 75 2.8 SW 15 20 8 11 1014.3 1013.8 1.4
17/05:00am 23.2 21.6 16.5 66 4.1 SE 20 30 11 16 1014.4 1013.9 1.4
17/04:30am 23.3 21.4 16.6 66 4.1 ESE 22 30 12 16 1014.5 1014.0 1.4
17/04:00am 23.2 19.7 15.5 62 4.6 ESE 28 33 15 18 1014.5 1014.0 1.4
17/03:30am 23.2 20.0 16.3 65 4.2 E 28 35 15 19 1014.6 1014.1 1.4
17/03:00am 23.1 19.9 16.4 66 4.1 E 28 37 15 20 1015.0 1014.5 1.4
17/02:30am 23.2 20.0 16.3 65 4.2 ESE 28 33 15 18 1015.4 1014.9 1.4
17/02:00am 23.3 19.9 15.9 63 4.5 ESE 28 33 15 18 1015.7 1015.2 1.4
17/01:30am 23.3 20.3 16.8 67 4.0 E 28 33 15 18 1016.1 1015.7 1.4
17/01:00am 23.5 19.3 15.8 62 4.7 ESE 32 37 17 20 1016.5 1016.0 1.4
17/12:30am 23.7 20.4 17.0 66 4.1 ESE 30 37 16 20 1016.9 1016.4 1.4
17/12:00am 23.5 19.2 15.3 60 4.9 ESE 32 41 17 22 1017.3 1016.8 1.4
 
Date/Time
EDT
Temp
°C
App
Temp
°C
Dew
Point
°C
Rel
Hum
%
Delta-T
°C
Wind Press
QNH
hPa
Press
MSL
hPa
Rain since
9am
mm
Dir  Spd
km/h
Gust
km/h
Spd
kts
Gust
kts
16/11:30pm 23.7 20.0 16.0 62 4.7 SE 30 35 16 19 1017.5 1017.0 1.4
16/11:00pm 23.6 18.5 14.9 58 5.2 ESE 35 43 19 23 1017.5 1017.0 1.4
16/10:30pm 23.7 18.9 15.7 61 4.8 ESE 35 43 19 23 1017.6 1017.1 1.4
16/10:00pm 23.7 19.1 16.0 62 4.7 SE 35 43 19 23 1017.7 1017.2 1.4
16/09:30pm 23.8 19.6 16.3 63 4.6 SE 33 41 18 22 1017.6 1017.1 1.4
16/09:00pm 23.8 19.8 16.6 64 4.4 ESE 33 43 18 23 1017.3 1016.8 1.4
16/08:30pm 24.0 20.2 17.3 66 4.2 SE 33 43 18 23 1017.3 1016.8 1.4
16/08:00pm 23.9 18.6 17.2 66 4.2 ESE 41 48 22 26 1017.0 1016.5 1.4
16/07:30pm 24.2 20.4 16.7 63 4.6 SE 32 39 17 21 1017.0 1016.5 1.4
16/07:00pm 24.5 20.6 17.0 63 4.6 SE 33 41 18 22 1016.8 1016.3 1.4
16/06:30pm 24.9 21.5 17.6 64 4.6 SE 32 43 17 23 1016.6 1016.1 1.4
16/06:00pm 25.2 21.9 16.9 60 5.1 SE 30 41 16 22 1016.7 1016.2 1.4
16/05:30pm 24.8 21.6 16.2 58 5.3 SE 28 39 15 21 1016.7 1016.2 1.4
16/05:00pm 24.9 20.6 16.9 61 5.0 SE 35 44 19 24 1016.7 1016.2 1.4
16/04:30pm 25.1 21.1 16.3 58 5.4 SE 32 43 17 23 1016.7 1016.2 1.4
16/04:00pm 24.5 21.2 17.0 63 4.6 SSE 30 44 16 24 1016.9 1016.4 1.4
16/03:30pm 24.1 22.0 18.1 69 3.8 SE 26 41 14 22 1017.1 1016.6 1.4
16/03:00pm 24.0 21.1 19.3 75 3.0 E 33 43 18 23 1017.3 1016.8 1.4
16/02:30pm 25.0 22.5 18.0 65 4.4 SSE 28 39 15 21 1017.9 1017.4 1.4
16/02:00pm 24.5 22.1 18.2 68 4.0 SSE 28 39 15 21 1018.3 1017.8 1.4
16/01:30pm 23.3 20.1 18.6 75 3.0 ESE 33 43 18 23 1018.5 1018.0 1.4
16/01:00pm 21.7 21.3 20.2 91 1.0 SSE 22 33 12 18 1018.8 1018.3 1.4
16/12:30pm 21.1 18.3 19.4 90 1.1 S 33 43 18 23 1019.4 1018.9 1.0
16/12:26pm 21.0 17.4 19.3 90 1.1 S 37 44 20 24 1019.5 1019.0 1.0
16/12:00pm 24.8 23.3 19.4 72 3.5 SSE 26 39 14 21 1019.5 1019.0 0.0
16/11:51am 24.9 23.2 19.7 73 3.4 SSE 28 37 15 20 1019.6 1019.1 0.0
16/11:30am 24.3 20.3 18.5 70 3.7 SE 37 46 20 25 1019.5 1019.0 0.0
16/11:00am 24.7 20.4 16.9 62 4.8 SE 35 43 19 23 1019.5 1019.0 0.0
16/10:30am 24.2 16.8 18.2 69 3.8 ESE 54 65 29 35 1019.1 1018.6 0.0
16/10:22am 23.9 17.0 18.3 71 3.5 ESE 52 65 28 35 1019.0 1018.5 0.0
16/10:14am 24.8 20.8 19.4 72 3.5 SE 39 57 21 31 1019.1 1018.6 0.0
16/10:00am 23.3 20.2 18.8 76 2.9 SE 33 44 18 24 1019.5 1019.0 0.0
16/09:30am 23.9 20.7 18.1 70 3.7 SE 32 44 17 24 1019.4 1018.9 0.0
16/09:00am 23.6 22.1 18.5 73 3.2 SSE 24 33 13 18 1019.4 1018.9 2.0
16/08:30am 21.6 20.4 18.4 82 2.0 SSE 22 30 12 16 1019.3 1018.8 2.0
16/08:18am 21.8 19.4 18.2 80 2.3 SE 28 50 15 27 1019.2 1018.7 1.6
16/08:00am 23.0 20.4 17.7 72 3.3 ESE 28 39 15 21 1019.2 1018.7 1.2
16/07:39am 22.7 19.6 18.5 77 2.7 SE 32 52 17 28 1018.8 1018.3 1.2
16/07:30am 22.2 19.0 18.6 80 2.3 ESE 33 46 18 25 1018.7 1018.2 1.2
16/07:00am 22.8 18.8 17.7 73 3.2 ESE 35 43 19 23 1018.4 1017.9 1.2
16/06:51am 22.8 17.9 18.1 75 2.9 ESE 41 50 22 27 1018.2 1017.7 1.2
16/06:30am 22.8 19.4 18.1 75 2.9 SE 33 44 18 24 1018.2 1017.7 1.0
16/06:00am 22.3 21.2 18.7 80 2.3 SSE 22 32 12 17 1018.1 1017.6 1.0
16/05:30am 21.3 18.7 17.7 80 2.2 SSE 28 37 15 20 1018.2 1017.7 1.0
16/05:01am 23.0 19.1 18.7 77 2.7 SE 37 59 20 32 1017.4 1016.9 1.0
16/05:00am 23.4 20.0 18.9 76 2.9 SE 35 50 19 27 1017.5 1017.0 1.0
16/04:30am 23.0 18.9 16.5 67 4.0 SSE 33 48 18 26 1018.1 1017.6 1.0
16/04:00am 22.2 16.5 17.6 75 2.9 SE 44 61 24 33 1018.1 1017.6 1.0
16/03:54am 22.1 17.5 18.1 78 2.5 SSE 39 52 21 28 1018.0 1017.5 1.0
16/03:49am 21.1 15.8 17.3 79 2.3 SE 41 52 22 28 1018.4 1017.9 1.0
16/03:30am 22.2 17.9 18.6 80 2.3 SE 39 59 21 32 1018.1 1017.6 0.6
16/03:27am 22.4 19.3 18.4 78 2.5 SE 32 54 17 29 1018.2 1017.7 0.6
16/03:00am 23.7 19.1 17.2 67 4.0 SE 37 46 20 25 1018.5 1018.0 0.4
16/02:30am 23.4 17.2 16.4 64 4.3 ESE 44 52 24 28 1018.5 1018.0 0.4
16/02:00am 23.7 17.0 16.0 62 4.7 SE 46 56 25 30 1018.8 1018.3 0.4
16/01:30am 23.9 17.1 15.9 61 4.9 SE 46 56 25 30 1019.3 1018.8 0.4
16/01:18am 23.8 19.0 16.6 64 4.4 SE 37 54 20 29 1019.3 1018.8 0.4
16/01:00am 22.9 19.3 17.1 70 3.6 S 32 41 17 22 1020.0 1019.5 0.4
16/12:50am 22.4 16.9 16.7 70 3.5 SE 41 54 22 29 1020.2 1019.7 0.4
16/12:44am 22.8 18.0 17.5 72 3.3 SE 39 57 21 31 1020.0 1019.5 0.4
16/12:39am 23.6 19.7 16.4 64 4.4 SSE 32 57 17 31 1020.1 1019.6 0.4
16/12:30am 23.7 19.1 14.7 57 5.4 SSE 32 41 17 22 1020.3 1019.8 0.4
16/12:01am 24.0 18.6 15.0 57 5.4 SE 37 56 20 30 1020.1 1019.6 0.4
16/12:00am 24.2 19.7 16.5 62 4.7 SE 35 50 19 27 1020.1 1019.6 0.4
 
Date/Time
EDT
Temp
°C
App
Temp
°C
Dew
Point
°C
Rel
Hum
%
Delta-T
°C
Wind Press
QNH
hPa
Press
MSL
hPa
Rain since
9am
mm
Dir  Spd
km/h
Gust
km/h
Spd
kts
Gust
kts
15/11:30pm 24.1 18.7 13.9 53 6.0 SSE 35 44 19 24 1020.5 1020.0 0.4
15/11:00pm 24.4 19.0 13.9 52 6.2 S 35 44 19 24 1020.6 1020.1 0.4
15/10:30pm 24.1 17.9 15.9 60 5.0 S 43 52 23 28 1020.7 1020.2 0.4
15/10:00pm 24.3 20.0 16.0 60 5.1 SSE 33 50 18 27 1020.8 1020.3 0.4
15/09:30pm 24.5 20.3 16.2 60 5.1 SSE 33 46 18 25 1020.5 1020.0 0.4
15/09:03pm 24.4 19.9 16.4 61 4.9 SSE 35 54 19 29 1020.5 1020.0 0.4
15/09:00pm 24.3 19.2 15.8 59 5.2 SSE 37 54 20 29 1020.4 1019.9 0.4
15/08:30pm 24.1 18.7 16.9 64 4.5 SE 41 56 22 30 1020.0 1019.5 0.4
15/08:00pm 24.1 20.4 17.4 66 4.2 SSE 33 44 18 24 1019.8 1019.3 0.4
15/07:30pm 24.1 20.5 17.1 65 4.3 SSE 32 44 17 24 1019.6 1019.1 0.4
15/07:00pm 24.4 19.9 17.4 65 4.4 S 37 46 20 25 1019.3 1018.8 0.4
15/06:30pm 24.6 19.7 16.3 60 5.1 SSE 37 50 20 27 1019.0 1018.5 0.4
15/06:00pm 24.9 20.1 15.5 56 5.7 SSE 35 46 19 25 1019.0 1018.5 0.4

Other formats

Comma delimited format used in spreadsheet applications
http://www.bom.gov.au/fwo/IDN60801/IDN60801.94599.axf

JavaScript Object Notation format (JSON) in row-major order
http://www.bom.gov.au/fwo/IDN60801/IDN60801.94599.json

Data quality

Most of these data are generated automatically and are frequently updated. Quality checks on data are not normally performed. It is possible for incorrect values to appear. Refer to information at About Latest Weather Observations and please check the disclaimer before using these data.